Flight Track Log - Related Links

Times and Time Zones

All times are in EDT time to prevent confusion due to time zone crossing. See the TRS445 flight status page for this flight to view local times or setup timezone preferences in your user account.

Time Position Orientation Groundspeed Altitude Reporting Facility
EDT Latitude Longitude Course Direction KTS MPH feet Rate Location/Type
Mon 06:52:57 AM 44.9000 -93.2500 260° West 176 203 2,100  Level Minneapolis TRACON
Mon 06:53:43 AM 44.8947 -93.2942 260° West 208 239 3,100 1,415 Climbing Minneapolis Center
Mon 06:54:43 AM 44.8611 -93.3558 232° Southwest 236 272 4,600 1,785 Climbing Minneapolis Center
Mon 06:55:44 AM 44.7922 -93.3161 158° South 272 313 6,700 2,281 Climbing Minneapolis Center
Mon 06:56:44 AM 44.7111 -93.2600 154° Southeast 284 327 9,200 1,934 Climbing Minneapolis Center
Mon 06:57:45 AM 44.6361 -93.2044 152° Southeast 312 359 10,600 1,339 Climbing Minneapolis Center
Mon 06:58:45 AM 44.5492 -93.1403 152° Southeast 354 407 11,900 1,650 Climbing Minneapolis Center
Mon 06:59:45 AM 44.4567 -93.0700 152° Southeast 379 436 13,900 1,934 Climbing Minneapolis Center
Mon 07:00:46 AM 44.3628 -93.0008 152° Southeast 384 442 15,800 1,884 Climbing Minneapolis Center
Mon 07:01:46 AM 44.2647 -92.9281 152° Southeast 399 459 17,700 1,934 Climbing Minneapolis Center
Mon 07:02:47 AM 44.1639 -92.8575 153° Southeast 404 465 19,700 1,934 Climbing Minneapolis Center
Mon 07:03:47 AM 44.0575 -92.7867 154° Southeast 420 483 21,600 1,700 Climbing Minneapolis Center
Mon 07:04:47 AM 43.9533 -92.7131 153° Southeast 421 484 23,100 1,587 Climbing Minneapolis Center
Mon 07:05:48 AM 43.8428 -92.6381 154° Southeast 435 501 24,800 1,537 Climbing Minneapolis Center
Mon 07:06:48 AM 43.7264 -92.5675 156° South 443 510 26,200 1,190 Climbing Minneapolis Center
Mon 07:07:49 AM 43.6072 -92.5178 163° South 447 514 27,200 1,140 Climbing Minneapolis Center
Mon 07:08:49 AM 43.4864 -92.4656 163° South 457 526 28,500 1,190 Climbing Minneapolis Center
Mon 07:09:50 AM 43.3656 -92.4100 162° South 461 531 29,600 1,140 Climbing Minneapolis Center
Mon 07:10:50 AM 43.2436 -92.3564 162° South 464 534 30,800 1,339 Climbing Minneapolis Center
Mon 07:11:51 AM 43.0989 -92.2928 162° South 462 532 32,300 1,082 Climbing Minneapolis Center
Mon 07:12:52 AM 42.9789 -92.2403 162° South 459 528 33,000 893 Climbing Minneapolis Center
Mon 07:13:52 AM 42.8594 -92.1889 162° South 458 527 34,100 1,000 Climbing Minneapolis Center
Mon 07:14:52 AM 42.7408 -92.1347 161° South 459 528 35,000 446 Climbing Minneapolis Center
Mon 07:15:53 AM 42.6208 -92.0842 163° South 458 527 35,000  Level Minneapolis Center
Mon 07:17:02 AM 42.4789 -92.0211 162° South 454 522 35,000  Level Chicago Center
Mon 07:18:03 AM 42.3611 -91.9708 162° South 451 519 35,000  Level Chicago Center
Mon 07:19:04 AM 42.2417 -91.9181 162° South 457 526 35,000  Level Chicago Center
Mon 07:20:05 AM 42.1219 -91.8689 163° South 455 524 35,000  Level Chicago Center
Mon 07:21:06 AM 42.0008 -91.8172 162° South 460 529 35,000  Level Chicago Center
Mon 07:22:08 AM 41.8556 -91.7550 162° South 463 533 35,000  Level Chicago Center
Mon 07:23:09 AM 41.7344 -91.7044 163° South 462 532 35,000  Level Chicago Center
Mon 07:24:10 AM 41.6181 -91.6364 156° South 460 529 35,000  Level Chicago Center
Mon 07:25:11 AM 41.5069 -91.5431 148° Southeast 475 547 35,000  Level Chicago Center
Mon 07:26:12 AM 41.3983 -91.4500 147° Southeast 470 541 35,000  Level Chicago Center
Mon 07:27:13 AM 41.2881 -91.3589 148° Southeast 471 542 35,000  Level Chicago Center
Mon 07:28:15 AM 41.1686 -91.2611 148° Southeast 469 540 35,000  Level Chicago Center
Mon 07:29:16 AM 41.0594 -91.1689 147° Southeast 467 537 35,000  Level Chicago Center
Mon 07:30:17 AM 40.9492 -91.0792 148° Southeast 468 539 35,000  Level Chicago Center
Mon 07:31:18 AM 40.8403 -90.9881 148° Southeast 466 536 35,000  Level Chicago Center
Mon 07:32:20 AM 40.7292 -90.8989 149° Southeast 466 536 35,000  Level Chicago Center
Mon 07:33:21 AM 40.5969 -90.7897 148° Southeast 468 539 35,000  Level Chicago Center
Mon 07:34:22 AM 40.4822 -90.7092 152° Southeast 471 542 35,000  Level Chicago Center
Mon 07:35:24 AM 40.3603 -90.6567 162° South 465 535 35,000  Level Chicago Center
Mon 07:36:25 AM 40.2381 -90.6033 162° South 466 536 35,000  Level Chicago Center
Mon 07:37:27 AM 40.1144 -90.5506 162° South 468 539 35,000  Level Chicago Center
Mon 07:38:17 AM 40.0175 -90.5019 159° South 469 540 35,000  Level Kansas City Center
Mon 07:39:18 AM 39.9075 -90.4078 147° Southeast 476 548 35,000  Level Kansas City Center
Mon 07:40:19 AM 39.7975 -90.3122 146° Southeast 476 548 35,000  Level Kansas City Center
Mon 07:41:20 AM 39.6769 -90.2072 146° Southeast 479 551 35,000  Level Kansas City Center
Mon 07:42:21 AM 39.5664 -90.1108 146° Southeast 478 550 35,000  Level Kansas City Center
Mon 07:43:22 AM 39.4558 -90.0161 147° Southeast 477 549 35,000  Level Kansas City Center
Mon 07:44:23 AM 39.3442 -89.9228 147° Southeast 476 548 35,000  Level Kansas City Center
Mon 07:45:24 AM 39.2339 -89.8303 147° Southeast 473 544 35,000  Level Kansas City Center
Mon 07:46:25 AM 39.1097 -89.7272 147° Southeast 470 541 35,000  Level Kansas City Center
Mon 07:47:26 AM 38.9906 -89.6264 147° Southeast 475 547 35,000  Level Kansas City Center
Mon 07:48:27 AM 38.8792 -89.5339 147° Southeast 476 548 35,000  Level Kansas City Center
Mon 07:49:28 AM 38.7681 -89.4425 147° Southeast 474 545 35,000  Level Kansas City Center
Mon 07:50:28 AM 38.6575 -89.3506 147° Southeast 474 545 35,000  Level Kansas City Center
Mon 07:51:29 AM 38.5461 -89.2586 147° Southeast 475 547 35,000  Level Kansas City Center
Mon 07:52:31 AM 38.4275 -89.1608 147° Southeast 472 543 35,000  Level Kansas City Center
Mon 07:53:32 AM 38.3172 -89.0706 147° Southeast 472 543 35,000  Level Kansas City Center
Mon 07:54:33 AM 38.2111 -88.9864 148° Southeast 475 547 35,000  Level Kansas City Center
Mon 07:55:34 AM 38.0992 -88.8953 147° Southeast 479 551 35,000  Level Kansas City Center
Mon 07:56:35 AM 37.9889 -88.8058 147° Southeast 474 545 35,000  Level Kansas City Center
Mon 07:57:36 AM 37.8794 -88.7164 147° Southeast 470 541 35,000  Level Kansas City Center
Mon 07:58:37 AM 37.7747 -88.6319 147° Southeast 460 529 35,000  Level Kansas City Center
Mon 07:59:38 AM 37.6644 -88.5442 148° Southeast 464 534 35,000  Level Kansas City Center
Mon 08:00:09 AM 37.6033 -88.4958 148° Southeast 470 541 35,000  Level Memphis Center
Mon 08:01:09 AM 37.4936 -88.4097 148° Southeast 470 541 35,000  Level Memphis Center
Mon 08:02:09 AM 37.3861 -88.3236 148° Southeast 464 534 35,000  Level Memphis Center
Mon 08:03:09 AM 37.2822 -88.2244 143° Southeast 464 534 35,000  Level Memphis Center
Mon 08:04:09 AM 37.1947 -88.1044 132° Southeast 464 534 35,000  Level Memphis Center
Mon 08:05:09 AM 37.1050 -87.9847 133° Southeast 469 540 35,000  Level Memphis Center
Mon 08:06:09 AM 37.0172 -87.8628 132° Southeast 469 540 35,000 -100 Level Memphis Center
Mon 08:07:09 AM 36.9233 -87.7542 137° Southeast 458 527 34,800 -595 Descending Memphis Center
Mon 08:08:10 AM 36.8211 -87.6511 141° Southeast 464 534 33,800 -900 Descending Memphis Center
Mon 08:09:09 AM 36.7208 -87.5508 141° Southeast 471 542 33,000 -403 Descending Memphis Center
Mon 08:10:09 AM 36.6183 -87.4486 141° Southeast 471 542 33,000  Level Memphis Center
Mon 08:11:09 AM 36.5075 -87.3414 142° Southeast 466 536 33,000  Level Memphis Center
Mon 08:12:09 AM 36.4050 -87.2447 143° Southeast 466 536 33,000  Level Memphis Center
Mon 08:13:09 AM 36.3025 -87.1456 142° Southeast 466 536 33,000  Level Memphis Center
Mon 08:14:09 AM 36.2019 -87.0442 141° Southeast 466 536 33,000  Level Memphis Center
Mon 08:15:09 AM 36.0969 -86.9458 143° Southeast 471 542 33,000  Level Memphis Center
Mon 08:16:09 AM 35.9961 -86.8447 141° Southeast 471 542 33,000  Level Memphis Center
Mon 08:17:09 AM 35.8933 -86.7467 142° Southeast 476 548 33,000  Level Memphis Center
Mon 08:18:09 AM 35.7903 -86.6489 142° Southeast 476 548 33,000  Level Memphis Center
Mon 08:19:43 AM 35.6414 -86.5022 141° Southeast 463 533 33,000  Level Atlanta Center
Mon 08:20:43 AM 35.5411 -86.4072 142° Southeast 458 527 33,000  Level Atlanta Center
Mon 08:21:43 AM 35.4342 -86.3200 146° Southeast 458 527 33,000 -200 Level Atlanta Center
Mon 08:22:43 AM 35.2925 -86.3211 180° South 440 506 32,600 -800 Descending Atlanta Center
Mon 08:24:43 AM 35.0497 -86.3603 188° South 446 513 30,600 -1,033 Descending Atlanta Center
Mon 08:25:43 AM 34.9344 -86.3797 188° South 435 501 29,500 -1,000 Descending Atlanta Center
Mon 08:26:43 AM 34.8394 -86.3242 154° Southeast 376 433 28,600 -950 Descending Atlanta Center
Mon 08:27:43 AM 34.7789 -86.2111 123° Southeast 361 415 27,600 -800 Descending Atlanta Center
Mon 08:28:43 AM 34.7122 -86.0881 123° Southeast 389 448 27,000 -300 Descending Atlanta Center
Mon 08:29:43 AM 34.6475 -85.9678 123° Southeast 404 465 27,000 -400 Level Atlanta Center
Mon 08:30:43 AM 34.5783 -85.8478 125° Southeast 425 489 26,200 -900 Descending Atlanta Center
Mon 08:31:43 AM 34.5192 -85.7456 125° Southeast 429 494 25,200 -1,050 Descending Atlanta Center
Mon 08:32:43 AM 34.4539 -85.6283 124° Southeast 429 494 24,100 -1,550 Descending Atlanta Center
Mon 08:33:43 AM 34.3867 -85.5064 124° Southeast 417 480 22,100 -2,050 Descending Atlanta Center
Mon 08:34:43 AM 34.3231 -85.3969 125° Southeast 406 467 20,000 -2,150 Descending Atlanta Center
Mon 08:35:43 AM 34.2617 -85.2906 125° Southeast 394 453 17,800 -1,950 Descending Atlanta Center
Mon 08:36:43 AM 34.2083 -85.1992 125° Southeast 385 443 16,100 -1,950 Descending Atlanta Center
Mon 08:37:43 AM 34.1486 -85.1006 126° Southeast 371 427 13,900 -1,550 Descending Atlanta Center
Mon 08:38:43 AM 34.0847 -85.0219 134° Southeast 348 400 13,000 -750 Descending Atlanta Center
Mon 08:39:43 AM 34.0142 -84.9586 143° Southeast 328 377 12,400 -950 Descending Atlanta Center
Mon 08:40:43 AM 33.9369 -84.9478 173° South 295 339 11,100 -1,100 Descending Atlanta Center
Mon 08:41:43 AM 33.8725 -84.9369 172° South 259 298 10,200 -1,050 Descending Atlanta Center
Mon 08:42:43 AM 33.8183 -84.9214 167° South 218 251 9,000 -650 Descending Atlanta Center
Mon 08:43:43 AM 33.7642 -84.9133 173° South 201 231 8,900 -750 Descending Atlanta Center
Mon 08:44:43 AM 33.7097 -84.9003 169° South 201 231 7,500 -950 Descending Atlanta Center
Mon 08:45:43 AM 33.6556 -84.8872 169° South 201 231 7,000 -353 Descending Atlanta Center
Mon 08:46:08 AM 33.6333 -84.8500 126° Southeast 213 245 7,000 -282 Level Atlanta TRACON
Mon 08:47:08 AM 33.6333 -84.7833 90° East 221 254 6,600 -900 Descending Atlanta TRACON
Mon 08:48:08 AM 33.6333 -84.7167 90° East 215 247 5,200 -1,250 Descending Atlanta TRACON
Mon 08:49:08 AM 33.6333 -84.6500 90° East 206 237 4,100 -1,050 Descending Atlanta TRACON
Mon 08:50:08 AM 33.6333 -84.5833 90° East 198 228 3,100 -950 Descending Atlanta TRACON
Mon 08:51:08 AM 33.6333 -84.5167 90° East 159 183 2,200 -850 Descending Atlanta TRACON
Mon 08:52:08 AM 33.6333 -84.4667 90° East 141 162 1,400 -800 Descending Atlanta TRACON
Mon 08:54:00 AM 33.6367 -84.4279 North  Level Estimated
Mon 09:01:00 AM 33.6367 -84.4279 North  Level Estimated

Login

Don't have an account? Register now (free) for customized features, flight alerts, and more!